createdAt,value
2019-01-19T00:02:14.743Z,-2.10
2019-01-19T00:04:55.250Z,-2.30
2019-01-19T00:07:38.496Z,-2.20
2019-01-19T00:10:32.833Z,-2.40
2019-01-19T00:13:07.112Z,-2.60
2019-01-19T00:15:41.189Z,-2.50
2019-01-19T00:18:30.629Z,-2.20
2019-01-19T00:21:16.931Z,-2.40
2019-01-19T00:24:06.084Z,-2.60
2019-01-19T00:26:49.392Z,-2.60
2019-01-19T00:29:45.642Z,-2.60
2019-01-19T00:32:17.179Z,-2.30
2019-01-19T00:34:48.696Z,-2.30
2019-01-19T00:37:20.247Z,-2.20
2019-01-19T00:40:00.415Z,-2.30
2019-01-19T00:42:43.728Z,-2.60
2019-01-19T00:45:23.755Z,-2.80
2019-01-19T00:48:16.257Z,-2.90
2019-01-19T00:50:53.579Z,-3.00
2019-01-19T00:53:34.080Z,-3.10
2019-01-19T00:56:20.584Z,-3.10
2019-01-19T00:58:55.130Z,-3.20
2019-01-19T01:01:41.218Z,-3.20
2019-01-19T01:04:22.248Z,-3.30
2019-01-19T01:06:56.392Z,-3.30
2019-01-19T01:09:48.942Z,-3.40
2019-01-19T01:12:49.642Z,-3.30
2019-01-19T01:15:40.715Z,-3.30
2019-01-19T01:18:30.529Z,-3.40
2019-01-19T01:21:10.864Z,-3.50
2019-01-19T01:24:00.127Z,-3.40
2019-01-19T01:26:52.767Z,-3.30
2019-01-19T01:29:40.849Z,-3.40
2019-01-19T01:32:21.442Z,-3.40
2019-01-19T01:35:12.673Z,-3.30
2019-01-19T01:37:44.221Z,-3.40
2019-01-19T01:40:32.794Z,-3.40
2019-01-19T01:43:04.413Z,-3.10
2019-01-19T01:45:38.680Z,-3.20
2019-01-19T01:48:19.016Z,-3.20
2019-01-19T01:51:11.622Z,-3.30
2019-01-19T01:54:02.628Z,-3.40
2019-01-19T01:56:31.139Z,-3.60
2019-01-19T01:59:05.581Z,-3.60
2019-01-19T02:01:37.143Z,-3.40
2019-01-19T02:04:28.205Z,-3.60
2019-01-19T02:07:31.291Z,-3.70
2019-01-19T02:10:14.491Z,-3.90
2019-01-19T02:13:05.477Z,-4.00
2019-01-19T02:15:37.184Z,-4.20
2019-01-19T02:18:27.919Z,-5.10
2019-01-19T02:21:02.420Z,-3.90
2019-01-19T02:23:52.100Z,-4.00
2019-01-19T02:26:32.478Z,-4.10
2019-01-19T02:29:06.716Z,-4.30
2019-01-19T02:31:43.987Z,-4.10
2019-01-19T02:34:33.691Z,-4.10
2019-01-19T02:37:25.867Z,-4.00
2019-01-19T02:40:00.008Z,-4.10
2019-01-19T02:42:43.395Z,-4.20
2019-01-19T02:45:33.192Z,-4.30
2019-01-19T02:48:07.581Z,-4.30
2019-01-19T02:50:41.703Z,-4.40
2019-01-19T02:53:22.265Z,-4.50
2019-01-19T02:55:56.861Z,-4.60
2019-01-19T02:58:52.888Z,-4.60
2019-01-19T03:01:35.859Z,-4.60
2019-01-19T03:04:28.553Z,-4.70
2019-01-19T03:07:03.030Z,-4.70
2019-01-19T03:09:40.372Z,-4.70
2019-01-19T03:12:31.269Z,-4.70
2019-01-19T03:15:38.881Z,-4.70
2019-01-19T03:18:13.383Z,-4.80
2019-01-19T03:20:45.004Z,-4.80
2019-01-19T03:23:28.788Z,-4.90
2019-01-19T03:26:15.203Z,-5.00
2019-01-19T03:28:52.743Z,-5.20
2019-01-19T03:31:40.699Z,-5.20
2019-01-19T03:34:30.956Z,-5.30
2019-01-19T03:37:11.905Z,-5.30
2019-01-19T03:40:18.528Z,-5.30
2019-01-19T03:42:56.429Z,-5.30
2019-01-19T03:45:50.921Z,-5.30
2019-01-19T03:48:38.977Z,-5.30
2019-01-19T03:51:33.553Z,-5.30
2019-01-19T03:54:08.056Z,-5.50
2019-01-19T03:56:57.679Z,-5.50
2019-01-19T03:59:44.247Z,-5.50
2019-01-19T04:02:27.993Z,-5.40
2019-01-19T04:05:11.192Z,-5.40
2019-01-19T04:07:51.594Z,-5.50
2019-01-19T04:10:23.250Z,-5.60
2019-01-19T04:13:03.685Z,-5.50
2019-01-19T04:15:47.623Z,-5.40
2019-01-19T04:18:40.032Z,-5.40
2019-01-19T04:21:29.585Z,-5.40
2019-01-19T04:24:01.334Z,-5.40
2019-01-19T04:26:32.862Z,-5.40
2019-01-19T04:29:01.581Z,-5.40
2019-01-19T04:31:30.191Z,-5.40
2019-01-19T04:33:59.362Z,-5.30
2019-01-19T04:36:28.720Z,-5.30
2019-01-19T04:38:57.785Z,-5.40
2019-01-19T04:41:26.312Z,-5.50
2019-01-19T04:43:54.889Z,-5.60
2019-01-19T04:46:23.561Z,-5.60
2019-01-19T04:48:52.555Z,-5.60
2019-01-19T04:51:21.126Z,-5.50
2019-01-19T04:53:52.776Z,-5.40
2019-01-19T04:56:21.477Z,-5.50
2019-01-19T04:58:50.001Z,-5.40
2019-01-19T05:01:18.570Z,-5.50
2019-01-19T05:03:47.034Z,-5.50
2019-01-19T05:06:15.468Z,-5.60
2019-01-19T05:08:43.933Z,-5.50
2019-01-19T05:11:12.493Z,-5.50
2019-01-19T05:13:40.961Z,-5.40
2019-01-19T05:16:09.412Z,-5.30
2019-01-19T05:18:37.986Z,-5.40
2019-01-19T05:21:06.958Z,-5.30
2019-01-19T05:23:35.772Z,-5.40
2019-01-19T05:26:04.303Z,-5.50
2019-01-19T05:28:32.748Z,-5.40
2019-01-19T05:31:01.228Z,-5.30
2019-01-19T05:33:29.681Z,-5.40
2019-01-19T05:35:58.137Z,-5.50
2019-01-19T05:38:26.603Z,-5.20
2019-01-19T05:40:55.080Z,-5.00
2019-01-19T05:43:23.524Z,-5.10
2019-01-19T05:45:52.009Z,-5.30
2019-01-19T05:48:20.461Z,-5.40
2019-01-19T05:50:49.005Z,-5.50
2019-01-19T05:53:17.444Z,-5.80
2019-01-19T05:55:45.904Z,-5.80
2019-01-19T05:58:14.348Z,-5.70
2019-01-19T06:00:42.841Z,-5.80
2019-01-19T06:03:11.279Z,-5.90
2019-01-19T06:05:40.924Z,-5.90
2019-01-19T06:08:09.433Z,-5.90
2019-01-19T06:10:37.905Z,-5.90
2019-01-19T06:13:06.448Z,-6.00
2019-01-19T06:15:34.958Z,-6.00
2019-01-19T06:18:03.515Z,-5.90
2019-01-19T06:20:32.000Z,-6.00
2019-01-19T06:23:00.460Z,-6.10
2019-01-19T06:25:28.899Z,-6.10
2019-01-19T06:27:57.368Z,-6.00
2019-01-19T06:30:26.046Z,-6.00
2019-01-19T06:32:54.521Z,-6.00
2019-01-19T06:35:23.068Z,-6.00
2019-01-19T06:37:51.685Z,-6.20
2019-01-19T06:40:20.308Z,-6.20
2019-01-19T06:42:48.911Z,-6.20
2019-01-19T06:45:20.158Z,-6.20
2019-01-19T06:47:48.688Z,-6.20
2019-01-19T06:50:17.859Z,-6.30
2019-01-19T06:52:46.567Z,-6.20
2019-01-19T06:55:20.775Z,-6.30
2019-01-19T06:57:49.211Z,-6.30
2019-01-19T07:00:18.545Z,-6.30
2019-01-19T07:02:47.129Z,-6.20
2019-01-19T07:05:15.583Z,-6.00
2019-01-19T07:07:44.110Z,-6.00
2019-01-19T07:10:15.359Z,-6.00
2019-01-19T07:12:43.884Z,-6.10
2019-01-19T07:15:13.596Z,-6.00
2019-01-19T07:17:42.044Z,-5.90
2019-01-19T07:20:15.963Z,-5.90
2019-01-19T07:22:44.476Z,-6.00
2019-01-19T07:25:13.384Z,-6.00
2019-01-19T07:27:41.900Z,-5.80
2019-01-19T07:30:13.085Z,-5.70
2019-01-19T07:32:41.529Z,-5.70
2019-01-19T07:35:10.055Z,-5.80
2019-01-19T07:37:38.569Z,-5.70
2019-01-19T07:40:09.867Z,-5.70
2019-01-19T07:42:39.365Z,-5.70
2019-01-19T07:45:10.055Z,-5.70
2019-01-19T07:47:38.948Z,-5.70
2019-01-19T07:50:10.437Z,-5.60
2019-01-19T07:52:39.027Z,-5.50
2019-01-19T07:55:10.435Z,-5.40
2019-01-19T07:57:38.946Z,-5.10
2019-01-19T08:00:13.304Z,-4.90
2019-01-19T08:02:41.960Z,-4.70
2019-01-19T08:05:11.183Z,-4.90
2019-01-19T08:07:39.769Z,-4.80
2019-01-19T08:10:11.231Z,-4.80
2019-01-19T08:12:39.867Z,-4.70
2019-01-19T08:15:14.189Z,-4.70
2019-01-19T08:17:42.798Z,-4.70
2019-01-19T08:20:13.378Z,-4.40
2019-01-19T08:22:42.096Z,-4.10
2019-01-19T08:25:12.176Z,-4.00
2019-01-19T08:27:40.780Z,-3.90
2019-01-19T08:30:18.299Z,-3.90
2019-01-19T08:32:46.943Z,-3.80
2019-01-19T08:35:17.294Z,-3.70
2019-01-19T08:37:46.299Z,-3.60
2019-01-19T08:40:29.392Z,-3.60
2019-01-19T08:43:03.262Z,-3.60
2019-01-19T08:45:31.779Z,-3.50
2019-01-19T08:48:01.101Z,-3.40
2019-01-19T08:50:29.548Z,-3.30
2019-01-19T08:52:58.016Z,-3.20
2019-01-19T08:55:26.551Z,-3.20
2019-01-19T08:57:55.002Z,-3.20
2019-01-19T09:00:23.526Z,-3.20
2019-01-19T09:02:52.000Z,-3.10
2019-01-19T09:05:20.529Z,-3.00
2019-01-19T09:07:49.024Z,-2.90
2019-01-19T09:10:18.728Z,-2.80
2019-01-19T09:12:47.245Z,-2.80
2019-01-19T09:15:17.949Z,-2.70
2019-01-19T09:17:46.481Z,-2.70
2019-01-19T09:20:16.784Z,-2.70
2019-01-19T09:22:47.108Z,-2.60
2019-01-19T09:25:16.230Z,-2.60
2019-01-19T09:27:44.772Z,-2.70
2019-01-19T09:30:15.999Z,-2.50
2019-01-19T09:32:44.940Z,-2.40
2019-01-19T09:35:13.664Z,-2.30
2019-01-19T09:37:42.266Z,-2.40
2019-01-19T09:40:15.618Z,-2.20
2019-01-19T09:42:44.706Z,-2.10
2019-01-19T09:45:15.428Z,-2.10
2019-01-19T09:47:44.624Z,-2.10
2019-01-19T09:50:15.627Z,-2.00
2019-01-19T09:52:45.265Z,-1.90
2019-01-19T09:55:14.147Z,-2.00
2019-01-19T09:57:42.926Z,-1.70
2019-01-19T10:00:22.962Z,-1.70
2019-01-19T10:02:51.424Z,-1.70
2019-01-19T10:05:24.880Z,-1.60
2019-01-19T10:07:53.712Z,-1.60
2019-01-19T10:10:22.253Z,-1.60
2019-01-19T10:12:50.862Z,-1.60
2019-01-19T10:15:20.655Z,-1.60
2019-01-19T10:17:49.258Z,-1.50
2019-01-19T10:20:29.245Z,-1.40
2019-01-19T10:22:57.796Z,-1.30
2019-01-19T10:25:26.674Z,-1.30
2019-01-19T10:27:55.888Z,-1.20
2019-01-19T10:30:28.462Z,-1.30
2019-01-19T10:32:57.083Z,-1.30
2019-01-19T10:35:25.604Z,-1.20
2019-01-19T10:37:56.459Z,-1.00
2019-01-19T10:40:24.902Z,-1.00
2019-01-19T10:42:53.521Z,-1.00
2019-01-19T10:45:24.414Z,-0.80
2019-01-19T10:47:52.880Z,-0.80
2019-01-19T10:50:22.449Z,-0.80
2019-01-19T10:52:51.157Z,-0.60
2019-01-19T10:55:21.348Z,-0.60
2019-01-19T10:57:50.241Z,-0.60
2019-01-19T11:00:24.307Z,-0.40
2019-01-19T11:02:53.211Z,-0.30
2019-01-19T11:05:21.880Z,-0.30
2019-01-19T11:07:50.652Z,-0.20
2019-01-19T11:10:22.230Z,-0.20
2019-01-19T11:12:51.185Z,-0.10
2019-01-19T11:15:19.992Z,0.00
2019-01-19T11:17:48.578Z,0.00
2019-01-19T11:20:25.723Z,0.10
2019-01-19T11:22:54.784Z,0.20
2019-01-19T11:25:23.478Z,0.20
2019-01-19T11:27:52.012Z,0.20
2019-01-19T11:30:25.817Z,0.20
2019-01-19T11:32:54.517Z,0.30
2019-01-19T11:35:23.372Z,0.30
2019-01-19T11:37:52.013Z,0.30
2019-01-19T11:40:32.476Z,0.50
2019-01-19T11:43:01.006Z,0.50
2019-01-19T11:45:29.664Z,0.50
2019-01-19T11:47:58.128Z,0.50
2019-01-19T11:50:26.677Z,0.40
2019-01-19T11:52:55.127Z,0.50
2019-01-19T11:55:23.590Z,0.50
2019-01-19T11:57:57.770Z,0.60
2019-01-19T12:00:28.547Z,0.60
2019-01-19T12:02:57.124Z,0.60
2019-01-19T12:05:25.651Z,0.70
2019-01-19T12:07:54.344Z,0.70
2019-01-19T12:10:27.517Z,0.70
2019-01-19T12:12:57.490Z,0.80
2019-01-19T12:15:26.682Z,0.80
2019-01-19T12:17:55.225Z,1.00
2019-01-19T12:20:26.739Z,1.10
2019-01-19T12:22:55.510Z,1.20
2019-01-19T12:25:25.295Z,1.40
2019-01-19T12:27:53.987Z,1.50
2019-01-19T12:30:27.762Z,1.80
2019-01-19T12:32:56.277Z,1.90
2019-01-19T12:35:24.805Z,2.10
2019-01-19T12:37:53.616Z,2.00
2019-01-19T12:40:24.278Z,2.00
2019-01-19T12:42:58.279Z,2.10
2019-01-19T12:45:30.037Z,2.00
2019-01-19T12:47:58.558Z,1.80
2019-01-19T12:50:27.851Z,1.70
2019-01-19T12:52:56.437Z,1.60
2019-01-19T12:55:24.959Z,1.80
2019-01-19T12:57:53.400Z,2.10
2019-01-19T13:00:28.938Z,2.30
2019-01-19T13:02:57.835Z,2.50
2019-01-19T13:05:47.500Z,2.60
2019-01-19T13:08:19.339Z,3.00
2019-01-19T13:11:03.182Z,2.90
2019-01-19T13:13:32.284Z,2.60
2019-01-19T13:16:18.520Z,2.30
2019-01-19T13:18:50.051Z,2.00
2019-01-19T13:21:41.161Z,2.30
2019-01-19T13:24:44.622Z,2.60
2019-01-19T13:27:28.380Z,3.00
2019-01-19T13:30:03.124Z,3.30
2019-01-19T13:33:06.416Z,3.70
2019-01-19T13:35:57.477Z,3.90
2019-01-19T13:38:41.881Z,3.90
2019-01-19T13:41:22.812Z,3.70
2019-01-19T13:44:27.681Z,3.60
2019-01-19T13:47:16.565Z,3.50
2019-01-19T13:49:48.088Z,4.00
2019-01-19T13:52:19.668Z,4.00
2019-01-19T13:54:54.067Z,3.50
2019-01-19T13:57:28.292Z,3.40
2019-01-19T14:00:02.612Z,3.50
2019-01-19T14:02:57.084Z,3.20
2019-01-19T14:05:28.616Z,3.40
2019-01-19T14:08:22.722Z,3.50
2019-01-19T14:11:09.477Z,3.80
2019-01-19T14:13:58.868Z,3.60
2019-01-19T14:16:49.809Z,3.50
2019-01-19T14:19:26.815Z,3.80
2019-01-19T14:22:19.300Z,3.40
2019-01-19T14:25:02.887Z,3.50
2019-01-19T14:27:40.322Z,3.50
2019-01-19T14:30:28.106Z,3.50
2019-01-19T14:33:17.842Z,3.40
2019-01-19T14:36:17.751Z,3.10
2019-01-19T14:38:56.855Z,3.30
2019-01-19T14:41:28.249Z,3.10
2019-01-19T14:44:14.540Z,3.20
2019-01-19T14:46:46.108Z,3.20
2019-01-19T14:49:34.977Z,3.20
2019-01-19T14:52:22.914Z,3.10
2019-01-19T14:55:14.030Z,2.90
2019-01-19T14:57:52.198Z,3.00
2019-01-19T15:00:59.208Z,3.00
2019-01-19T15:03:35.181Z,2.50
2019-01-19T15:06:16.076Z,1.40
2019-01-19T15:09:08.513Z,1.70
2019-01-19T15:11:45.878Z,1.60
2019-01-19T15:14:20.580Z,1.60
2019-01-19T15:17:03.865Z,1.60
2019-01-19T15:19:58.331Z,1.60
2019-01-19T15:22:50.736Z,1.80
2019-01-19T15:25:43.504Z,1.70
2019-01-19T15:28:17.694Z,1.30
2019-01-19T15:30:54.744Z,0.90
2019-01-19T15:33:31.939Z,0.60
2019-01-19T15:36:12.520Z,0.50
2019-01-19T15:38:56.105Z,0.50
2019-01-19T15:41:39.716Z,0.40
2019-01-19T15:44:29.486Z,0.40
2019-01-19T15:47:01.013Z,0.20
2019-01-19T15:49:47.403Z,0.20
2019-01-19T15:52:33.805Z,0.20
2019-01-19T15:55:10.883Z,0.00
2019-01-19T15:57:45.036Z,-0.10
2019-01-19T16:00:28.409Z,-0.10
2019-01-19T16:03:11.253Z,-0.20
2019-01-19T16:05:55.062Z,-0.30
2019-01-19T16:08:38.391Z,-0.40
2019-01-19T16:11:22.024Z,-0.50
2019-01-19T16:14:05.720Z,-0.50
2019-01-19T16:16:53.802Z,-0.60
2019-01-19T16:19:31.238Z,-0.60
2019-01-19T16:22:17.979Z,-0.60
2019-01-19T16:25:10.776Z,-0.70
2019-01-19T16:27:44.932Z,-0.80
2019-01-19T16:30:25.611Z,-0.80
2019-01-19T16:33:12.400Z,-0.70
2019-01-19T16:35:55.948Z,-0.90
2019-01-19T16:38:33.232Z,-0.90
2019-01-19T16:41:19.736Z,-0.90
2019-01-19T16:44:07.726Z,-0.90
2019-01-19T16:46:51.088Z,-0.80
2019-01-19T16:49:34.423Z,-0.90
2019-01-19T16:52:27.198Z,-0.80
2019-01-19T16:55:11.063Z,-1.00
2019-01-19T16:58:00.705Z,-0.90
2019-01-19T17:00:50.260Z,-1.00
2019-01-19T17:03:33.997Z,-0.90
2019-01-19T17:06:17.835Z,-0.90
2019-01-19T17:08:58.352Z,-1.00
2019-01-19T17:11:57.341Z,-1.10
2019-01-19T17:14:49.772Z,-1.10
2019-01-19T17:17:24.476Z,-1.20
2019-01-19T17:19:59.007Z,-1.20
2019-01-19T17:22:33.284Z,-1.30
2019-01-19T17:25:33.834Z,-1.40
2019-01-19T17:28:20.457Z,-1.60
2019-01-19T17:31:20.758Z,-1.60
2019-01-19T17:34:04.451Z,-1.80
2019-01-19T17:36:42.833Z,-1.90
2019-01-19T17:39:32.564Z,-1.80
2019-01-19T17:42:25.243Z,-1.70
2019-01-19T17:45:15.974Z,-1.60
2019-01-19T17:48:07.279Z,-1.70
2019-01-19T17:50:57.400Z,-1.70
2019-01-19T17:53:34.195Z,-1.70
2019-01-19T17:56:05.762Z,-1.60
2019-01-19T17:58:43.233Z,-1.80
2019-01-19T18:01:18.057Z,-1.90
2019-01-19T18:03:55.429Z,-1.90
2019-01-19T18:06:32.808Z,-2.10
2019-01-19T18:09:04.419Z,-2.10
2019-01-19T18:11:38.881Z,-2.20
2019-01-19T18:14:27.234Z,-2.10
2019-01-19T18:17:04.468Z,-2.10
2019-01-19T18:19:44.808Z,-2.30
2019-01-19T18:22:25.146Z,-2.50
2019-01-19T18:25:14.517Z,-2.70
2019-01-19T18:28:15.419Z,-2.90
2019-01-19T18:30:49.843Z,-3.10
2019-01-19T18:33:39.641Z,-3.10
2019-01-19T18:36:30.696Z,-3.20
2019-01-19T18:39:11.616Z,-3.20
2019-01-19T18:41:46.049Z,-3.20
2019-01-19T18:44:35.881Z,-3.30
2019-01-19T18:47:20.844Z,-3.20
2019-01-19T18:49:55.181Z,-3.50
2019-01-19T18:52:48.047Z,-3.40
2019-01-19T18:55:22.349Z,-3.50
2019-01-19T18:58:02.940Z,-3.40
2019-01-19T19:00:55.719Z,-3.30
2019-01-19T19:03:29.926Z,-3.30
2019-01-19T19:06:07.433Z,-3.30
2019-01-19T19:08:54.164Z,-3.30
2019-01-19T19:11:32.439Z,-3.00
2019-01-19T19:14:10.955Z,-3.20
2019-01-19T19:16:42.679Z,-3.10
2019-01-19T19:19:21.394Z,-3.00
2019-01-19T19:22:17.296Z,-2.60
2019-01-19T19:25:06.954Z,-2.70
2019-01-19T19:28:05.086Z,-2.80
2019-01-19T19:30:51.830Z,-2.80
2019-01-19T19:33:25.980Z,-2.90
2019-01-19T19:36:29.565Z,-3.10
2019-01-19T19:39:31.000Z,-3.10
2019-01-19T19:42:22.095Z,-3.30
2019-01-19T19:45:02.550Z,-3.40
2019-01-19T19:47:49.315Z,-3.60
2019-01-19T19:50:46.588Z,-3.80
2019-01-19T19:53:15.225Z,-3.60
2019-01-19T19:55:42.595Z,-3.70
2019-01-19T19:58:11.051Z,-3.80
2019-01-19T20:00:39.808Z,-3.70
2019-01-19T20:03:08.664Z,-3.70
2019-01-19T20:05:37.242Z,-3.80
2019-01-19T20:08:05.743Z,-3.80
2019-01-19T20:10:34.224Z,-3.90
2019-01-19T20:13:02.663Z,-4.10
2019-01-19T20:15:31.264Z,-3.90
2019-01-19T20:18:00.084Z,-3.90
2019-01-19T20:20:28.551Z,-3.70
2019-01-19T20:22:56.993Z,-3.70
2019-01-19T20:25:25.620Z,-3.70
2019-01-19T20:27:54.072Z,-3.90
2019-01-19T20:30:22.889Z,-3.80
2019-01-19T20:32:51.332Z,-4.00
2019-01-19T20:35:19.893Z,-4.00
2019-01-19T20:37:48.332Z,-4.10
2019-01-19T20:40:16.770Z,-4.30
2019-01-19T20:42:45.238Z,-4.30
2019-01-19T20:45:14.248Z,-4.20
2019-01-19T20:47:42.715Z,-4.20
2019-01-19T20:50:12.401Z,-4.10
2019-01-19T20:52:40.995Z,-4.10
2019-01-19T20:55:10.880Z,-3.80
2019-01-19T20:57:39.575Z,-3.70
2019-01-19T21:00:14.364Z,-3.70
2019-01-19T21:02:44.111Z,-3.70
2019-01-19T21:05:12.677Z,-3.80
2019-01-19T21:07:41.281Z,-3.80
2019-01-19T21:10:09.961Z,-3.80
2019-01-19T21:12:38.426Z,-3.90
2019-01-19T21:15:09.967Z,-3.80
2019-01-19T21:17:38.442Z,-3.60
2019-01-19T21:20:10.165Z,-3.50
2019-01-19T21:22:38.658Z,-3.50
2019-01-19T21:25:09.440Z,-3.60
2019-01-19T21:27:37.915Z,-3.70
2019-01-19T21:30:15.515Z,-3.80
2019-01-19T21:32:43.967Z,-4.00
2019-01-19T21:35:12.552Z,-4.00
2019-01-19T21:37:41.011Z,-3.70
2019-01-19T21:40:12.076Z,-3.70
2019-01-19T21:42:40.525Z,-3.90
2019-01-19T21:45:12.153Z,-4.10
2019-01-19T21:47:40.608Z,-4.30
2019-01-19T21:50:10.911Z,-4.30
2019-01-19T21:52:39.533Z,-4.00
2019-01-19T21:55:09.933Z,-4.20
2019-01-19T21:57:38.441Z,-4.20
2019-01-19T22:00:12.628Z,-4.50
2019-01-19T22:02:41.077Z,-4.70
2019-01-19T22:05:09.782Z,-4.70
2019-01-19T22:07:38.237Z,-4.40
2019-01-19T22:10:10.107Z,-4.10
2019-01-19T22:12:38.553Z,-3.90
2019-01-19T22:15:15.143Z,-3.80
2019-01-19T22:17:43.673Z,-4.00
2019-01-19T22:20:14.663Z,-4.10
2019-01-19T22:22:43.195Z,-4.20
2019-01-19T22:25:11.881Z,-4.00
2019-01-19T22:27:42.149Z,-3.80
2019-01-19T22:30:22.353Z,-4.00
2019-01-19T22:32:52.516Z,-4.20
2019-01-19T22:35:23.541Z,-4.10
2019-01-19T22:37:52.071Z,-3.90
2019-01-19T22:40:20.960Z,-3.90
2019-01-19T22:42:49.951Z,-3.80
2019-01-19T22:45:18.605Z,-3.80
2019-01-19T22:47:47.157Z,-3.90
2019-01-19T22:50:17.163Z,-3.80
2019-01-19T22:52:46.056Z,-3.90
2019-01-19T22:55:14.848Z,-3.70
2019-01-19T22:57:43.384Z,-3.60
2019-01-19T23:00:21.086Z,-3.80
2019-01-19T23:02:49.693Z,-3.80
2019-01-19T23:05:18.124Z,-3.90
2019-01-19T23:07:46.597Z,-4.10
2019-01-19T23:10:15.102Z,-4.10
2019-01-19T23:12:43.636Z,-3.90
2019-01-19T23:15:12.690Z,-3.80
2019-01-19T23:17:41.148Z,-3.70
2019-01-19T23:20:11.230Z,-3.80
2019-01-19T23:22:39.841Z,-3.90
2019-01-19T23:25:09.048Z,-3.60
2019-01-19T23:27:37.508Z,-3.90
2019-01-19T23:30:11.615Z,-3.80
2019-01-19T23:32:40.076Z,-3.80
2019-01-19T23:35:08.960Z,-4.00
2019-01-19T23:37:37.415Z,-3.90
2019-01-19T23:40:08.932Z,-3.90
2019-01-19T23:42:37.401Z,-4.00
2019-01-19T23:45:08.486Z,-4.20
2019-01-19T23:47:36.964Z,-4.20
2019-01-19T23:50:10.038Z,-4.10
2019-01-19T23:52:38.707Z,-4.30
2019-01-19T23:55:07.601Z,-4.50
2019-01-19T23:57:36.069Z,-4.50
